sensor_id;sensor_type;location;lat;lon;timestamp;pressure;altitude;pressure_sealevel;temperature;humidity
24390;BME280;12510;56.468;-3.004;2023-03-15T00:01:16;99991.63;;;10.26;43.14
24390;BME280;12510;56.468;-3.004;2023-03-15T00:03:45;99995.44;;;10.14;43.50
24390;BME280;12510;56.468;-3.004;2023-03-15T00:06:12;99992.28;;;10.10;43.41
24390;BME280;12510;56.468;-3.004;2023-03-15T00:08:38;99991.84;;;10.15;43.34
24390;BME280;12510;56.468;-3.004;2023-03-15T00:11:05;99994.94;;;10.10;43.45
24390;BME280;12510;56.468;-3.004;2023-03-15T00:13:32;99991.59;;;10.08;43.51
24390;BME280;12510;56.468;-3.004;2023-03-15T00:16:00;99990.09;;;10.05;43.45
24390;BME280;12510;56.468;-3.004;2023-03-15T00:18:28;99988.44;;;10.04;43.61
24390;BME280;12510;56.468;-3.004;2023-03-15T00:20:54;99990.00;;;9.97;43.43
24390;BME280;12510;56.468;-3.004;2023-03-15T00:23:21;99984.66;;;9.89;43.56
24390;BME280;12510;56.468;-3.004;2023-03-15T00:25:49;99988.72;;;9.83;43.53
24390;BME280;12510;56.468;-3.004;2023-03-15T00:28:16;100000.38;;;9.71;44.02
24390;BME280;12510;56.468;-3.004;2023-03-15T00:30:44;100003.66;;;9.55;44.61
24390;BME280;12510;56.468;-3.004;2023-03-15T00:33:11;99995.25;;;9.79;44.66
24390;BME280;12510;56.468;-3.004;2023-03-15T00:35:41;100000.28;;;9.72;45.36
24390;BME280;12510;56.468;-3.004;2023-03-15T00:38:08;99997.66;;;9.90;45.02
24390;BME280;12510;56.468;-3.004;2023-03-15T00:40:36;99997.97;;;10.05;44.97
24390;BME280;12510;56.468;-3.004;2023-03-15T00:43:03;100009.06;;;10.09;44.67
24390;BME280;12510;56.468;-3.004;2023-03-15T00:45:29;100007.53;;;10.06;45.05
24390;BME280;12510;56.468;-3.004;2023-03-15T00:47:56;100021.00;;;10.03;45.40
24390;BME280;12510;56.468;-3.004;2023-03-15T00:50:23;100003.56;;;10.20;44.63
24390;BME280;12510;56.468;-3.004;2023-03-15T00:52:49;100022.03;;;9.65;46.60
24390;BME280;12510;56.468;-3.004;2023-03-15T00:55:17;100025.03;;;9.98;45.13
24390;BME280;12510;56.468;-3.004;2023-03-15T00:57:45;100024.41;;;9.86;44.99
24390;BME280;12510;56.468;-3.004;2023-03-15T01:00:21;100026.97;;;9.68;45.60
24390;BME280;12510;56.468;-3.004;2023-03-15T01:02:51;100032.47;;;8.89;46.82
24390;BME280;12510;56.468;-3.004;2023-03-15T01:05:18;100031.94;;;8.76;47.67
24390;BME280;12510;56.468;-3.004;2023-03-15T01:07:44;100035.53;;;8.65;47.98
24390;BME280;12510;56.468;-3.004;2023-03-15T01:10:12;100031.91;;;8.66;48.41
24390;BME280;12510;56.468;-3.004;2023-03-15T01:12:39;100027.78;;;8.74;48.33
24390;BME280;12510;56.468;-3.004;2023-03-15T01:15:06;100024.16;;;8.94;47.58
24390;BME280;12510;56.468;-3.004;2023-03-15T01:17:33;100021.13;;;8.89;47.61
24390;BME280;12510;56.468;-3.004;2023-03-15T01:20:01;100041.50;;;6.72;52.38
24390;BME280;12510;56.468;-3.004;2023-03-15T01:22:30;100044.50;;;6.67;53.06
24390;BME280;12510;56.468;-3.004;2023-03-15T01:24:56;100059.81;;;6.40;54.80
24390;BME280;12510;56.468;-3.004;2023-03-15T01:27:23;100060.88;;;6.48;55.04
24390;BME280;12510;56.468;-3.004;2023-03-15T01:29:51;100065.59;;;5.88;57.24
24390;BME280;12510;56.468;-3.004;2023-03-15T01:32:18;100058.69;;;7.49;56.12
24390;BME280;12510;56.468;-3.004;2023-03-15T01:34:45;100044.56;;;8.22;50.20
24390;BME280;12510;56.468;-3.004;2023-03-15T01:37:11;100065.56;;;6.11;56.40
24390;BME280;12510;56.468;-3.004;2023-03-15T01:39:42;100062.72;;;6.90;52.87
24390;BME280;12510;56.468;-3.004;2023-03-15T01:42:09;100057.28;;;6.06;56.63
24390;BME280;12510;56.468;-3.004;2023-03-15T01:44:52;100030.38;;;8.93;49.09
24390;BME280;12510;56.468;-3.004;2023-03-15T01:47:19;100032.19;;;8.93;47.68
24390;BME280;12510;56.468;-3.004;2023-03-15T01:49:49;100019.88;;;8.83;47.46
24390;BME280;12510;56.468;-3.004;2023-03-15T01:52:25;100030.66;;;8.70;48.59
24390;BME280;12510;56.468;-3.004;2023-03-15T01:55:14;100037.72;;;8.70;48.80
24390;BME280;12510;56.468;-3.004;2023-03-15T01:58:05;100029.69;;;8.91;48.01
24390;BME280;12510;56.468;-3.004;2023-03-15T02:00:34;100032.88;;;8.46;49.30
24390;BME280;12510;56.468;-3.004;2023-03-15T02:03:12;100034.84;;;8.53;49.75
24390;BME280;12510;56.468;-3.004;2023-03-15T02:05:48;100024.88;;;8.57;49.30
24390;BME280;12510;56.468;-3.004;2023-03-15T02:08:38;100012.81;;;9.03;48.11
24390;BME280;12510;56.468;-3.004;2023-03-15T02:11:06;100010.34;;;9.02;47.76
24390;BME280;12510;56.468;-3.004;2023-03-15T02:13:33;100013.69;;;8.84;48.26
24390;BME280;12510;56.468;-3.004;2023-03-15T02:16:05;100035.38;;;6.83;52.65
24390;BME280;12510;56.468;-3.004;2023-03-15T02:18:38;100034.69;;;6.16;54.57
24390;BME280;12510;56.468;-3.004;2023-03-15T02:21:39;100035.00;;;6.34;56.53
24390;BME280;12510;56.468;-3.004;2023-03-15T02:26:49;100035.91;;;5.78;59.08
24390;BME280;12510;56.468;-3.004;2023-03-15T02:29:17;100031.97;;;6.06;58.19
24390;BME280;12510;56.468;-3.004;2023-03-15T02:31:44;100030.28;;;7.54;57.23
24390;BME280;12510;56.468;-3.004;2023-03-15T02:34:10;100030.78;;;6.54;55.60
24390;BME280;12510;56.468;-3.004;2023-03-15T02:36:37;100023.69;;;6.33;56.63
24390;BME280;12510;56.468;-3.004;2023-03-15T02:39:19;100043.56;;;6.68;56.85
24390;BME280;12510;56.468;-3.004;2023-03-15T02:41:50;100037.34;;;6.37;56.53
24390;BME280;12510;56.468;-3.004;2023-03-15T02:44:22;100029.44;;;6.60;56.39
24390;BME280;12510;56.468;-3.004;2023-03-15T02:46:52;100028.91;;;6.45;56.97
24390;BME280;12510;56.468;-3.004;2023-03-15T02:49:24;100014.50;;;8.55;52.46
24390;BME280;12510;56.468;-3.004;2023-03-15T02:51:52;100004.53;;;8.98;48.97
24390;BME280;12510;56.468;-3.004;2023-03-15T02:54:19;100017.72;;;6.43;55.38
24390;BME280;12510;56.468;-3.004;2023-03-15T02:56:45;100026.03;;;6.48;56.36
24390;BME280;12510;56.468;-3.004;2023-03-15T02:59:11;100023.28;;;6.49;56.38
24390;BME280;12510;56.468;-3.004;2023-03-15T03:01:38;100018.25;;;6.58;55.95
24390;BME280;12510;56.468;-3.004;2023-03-15T03:04:05;100017.03;;;6.41;56.50
24390;BME280;12510;56.468;-3.004;2023-03-15T03:06:32;100017.00;;;5.97;58.43
24390;BME280;12510;56.468;-3.004;2023-03-15T03:09:00;100011.06;;;6.38;56.94
24390;BME280;12510;56.468;-3.004;2023-03-15T03:11:29;100012.94;;;6.48;56.29
24390;BME280;12510;56.468;-3.004;2023-03-15T03:13:56;100015.34;;;6.40;56.47
24390;BME280;12510;56.468;-3.004;2023-03-15T03:16:23;100017.72;;;6.43;56.10
24390;BME280;12510;56.468;-3.004;2023-03-15T03:18:49;100012.81;;;6.49;55.36
24390;BME280;12510;56.468;-3.004;2023-03-15T03:21:17;100015.50;;;6.38;55.59
24390;BME280;12510;56.468;-3.004;2023-03-15T03:23:43;100001.53;;;6.49;54.82
24390;BME280;12510;56.468;-3.004;2023-03-15T03:26:14;100010.13;;;6.40;55.08
24390;BME280;12510;56.468;-3.004;2023-03-15T03:28:45;99987.59;;;8.63;49.19
24390;BME280;12510;56.468;-3.004;2023-03-15T03:31:24;99989.09;;;8.46;49.54
24390;BME280;12510;56.468;-3.004;2023-03-15T03:33:52;100000.44;;;7.36;50.34
24390;BME280;12510;56.468;-3.004;2023-03-15T03:36:19;100016.94;;;6.84;51.38
24390;BME280;12510;56.468;-3.004;2023-03-15T03:38:46;100016.72;;;6.23;54.20
24390;BME280;12510;56.468;-3.004;2023-03-15T03:41:14;100011.78;;;7.15;54.73
24390;BME280;12510;56.468;-3.004;2023-03-15T03:43:41;100010.41;;;6.25;54.22
24390;BME280;12510;56.468;-3.004;2023-03-15T03:46:08;100011.31;;;6.03;55.25
24390;BME280;12510;56.468;-3.004;2023-03-15T03:48:38;100009.00;;;6.21;54.76
24390;BME280;12510;56.468;-3.004;2023-03-15T03:51:06;100008.44;;;5.95;55.77
24390;BME280;12510;56.468;-3.004;2023-03-15T03:53:32;100011.59;;;6.32;54.84
24390;BME280;12510;56.468;-3.004;2023-03-15T03:55:59;100009.97;;;5.97;55.10
24390;BME280;12510;56.468;-3.004;2023-03-15T03:58:29;100011.66;;;5.87;55.58
24390;BME280;12510;56.468;-3.004;2023-03-15T04:01:01;100015.13;;;5.76;55.13
24390;BME280;12510;56.468;-3.004;2023-03-15T04:03:31;100001.56;;;5.82;54.97
24390;BME280;12510;56.468;-3.004;2023-03-15T04:06:18;100010.59;;;5.78;55.72
24390;BME280;12510;56.468;-3.004;2023-03-15T04:08:47;100009.28;;;5.95;54.90
24390;BME280;12510;56.468;-3.004;2023-03-15T04:11:22;100015.00;;;5.78;55.45
24390;BME280;12510;56.468;-3.004;2023-03-15T04:13:55;100022.59;;;5.92;55.05
24390;BME280;12510;56.468;-3.004;2023-03-15T04:16:21;100026.28;;;5.90;55.56
24390;BME280;12510;56.468;-3.004;2023-03-15T04:18:56;100034.81;;;5.92;56.88
24390;BME280;12510;56.468;-3.004;2023-03-15T04:21:23;100025.25;;;7.11;52.43
24390;BME280;12510;56.468;-3.004;2023-03-15T04:23:54;100033.53;;;6.41;53.61
24390;BME280;12510;56.468;-3.004;2023-03-15T04:26:32;100041.72;;;5.81;57.57
24390;BME280;12510;56.468;-3.004;2023-03-15T04:29:18;100036.22;;;6.30;55.64
24390;BME280;12510;56.468;-3.004;2023-03-15T04:32:03;100029.34;;;6.06;56.50
24390;BME280;12510;56.468;-3.004;2023-03-15T04:34:48;100032.09;;;5.70;58.05
24390;BME280;12510;56.468;-3.004;2023-03-15T04:37:39;100017.38;;;6.03;54.46
24390;BME280;12510;56.468;-3.004;2023-03-15T04:40:23;100030.56;;;5.57;56.58
24390;BME280;12510;56.468;-3.004;2023-03-15T04:43:08;100026.66;;;5.51;58.13
24390;BME280;12510;56.468;-3.004;2023-03-15T04:45:46;100020.94;;;5.46;58.14
24390;BME280;12510;56.468;-3.004;2023-03-15T04:48:33;100024.16;;;5.49;57.29
24390;BME280;12510;56.468;-3.004;2023-03-15T04:51:18;100025.56;;;5.65;56.92
24390;BME280;12510;56.468;-3.004;2023-03-15T04:53:55;100030.78;;;5.65;57.77
24390;BME280;12510;56.468;-3.004;2023-03-15T04:56:40;100027.22;;;5.43;58.76
24390;BME280;12510;56.468;-3.004;2023-03-15T04:59:19;100023.78;;;5.54;57.58
24390;BME280;12510;56.468;-3.004;2023-03-15T05:02:04;100023.19;;;5.62;58.30
24390;BME280;12510;56.468;-3.004;2023-03-15T05:04:41;100017.97;;;5.62;57.24
24390;BME280;12510;56.468;-3.004;2023-03-15T05:07:39;100013.69;;;5.61;56.85
24390;BME280;12510;56.468;-3.004;2023-03-15T05:10:26;100020.13;;;5.45;58.17
24390;BME280;12510;56.468;-3.004;2023-03-15T05:13:13;100020.47;;;5.52;58.26
24390;BME280;12510;56.468;-3.004;2023-03-15T05:16:12;100014.28;;;5.53;57.77
24390;BME280;12510;56.468;-3.004;2023-03-15T05:19:00;100015.69;;;5.80;56.99
24390;BME280;12510;56.468;-3.004;2023-03-15T05:21:47;100024.03;;;6.40;59.03
24390;BME280;12510;56.468;-3.004;2023-03-15T05:24:49;100026.75;;;5.38;59.10
24390;BME280;12510;56.468;-3.004;2023-03-15T05:27:32;100031.13;;;5.15;61.75
24390;BME280;12510;56.468;-3.004;2023-03-15T05:30:18;100030.66;;;6.12;61.27
24390;BME280;12510;56.468;-3.004;2023-03-15T05:33:02;100032.34;;;5.67;58.45
24390;BME280;12510;56.468;-3.004;2023-03-15T05:35:49;100025.34;;;5.45;60.51
24390;BME280;12510;56.468;-3.004;2023-03-15T05:38:33;100020.06;;;6.25;55.96
24390;BME280;12510;56.468;-3.004;2023-03-15T05:41:18;100020.59;;;7.76;53.90
24390;BME280;12510;56.468;-3.004;2023-03-15T05:43:44;100015.34;;;7.76;53.20
24390;BME280;12510;56.468;-3.004;2023-03-15T05:46:31;100018.16;;;7.53;52.65
24390;BME280;12510;56.468;-3.004;2023-03-15T05:49:16;100025.00;;;7.76;52.74
24390;BME280;12510;56.468;-3.004;2023-03-15T05:51:56;100037.19;;;5.83;56.44
24390;BME280;12510;56.468;-3.004;2023-03-15T05:54:44;100037.44;;;5.46;60.78
24390;BME280;12510;56.468;-3.004;2023-03-15T05:57:29;100036.00;;;5.65;60.50
24390;BME280;12510;56.468;-3.004;2023-03-15T05:59:56;100041.97;;;5.44;61.57
24390;BME280;12510;56.468;-3.004;2023-03-15T06:02:44;100050.38;;;5.36;62.39
24390;BME280;12510;56.468;-3.004;2023-03-15T06:05:25;100045.97;;;5.26;63.67
24390;BME280;12510;56.468;-3.004;2023-03-15T06:07:52;100038.75;;;5.41;62.80
24390;BME280;12510;56.468;-3.004;2023-03-15T06:10:20;100037.06;;;5.40;62.75
24390;BME280;12510;56.468;-3.004;2023-03-15T06:12:47;100041.47;;;5.28;63.94
24390;BME280;12510;56.468;-3.004;2023-03-15T06:15:17;100020.41;;;7.68;55.83
24390;BME280;12510;56.468;-3.004;2023-03-15T06:17:44;100017.44;;;7.92;53.90
24390;BME280;12510;56.468;-3.004;2023-03-15T06:20:11;100007.19;;;8.59;51.86
24390;BME280;12510;56.468;-3.004;2023-03-15T06:22:37;100004.63;;;9.06;50.21
24390;BME280;12510;56.468;-3.004;2023-03-15T06:25:11;100006.25;;;8.60;50.75
24390;BME280;12510;56.468;-3.004;2023-03-15T06:27:39;100001.50;;;9.03;49.50
24390;BME280;12510;56.468;-3.004;2023-03-15T06:30:06;100016.44;;;8.83;49.91
24390;BME280;12510;56.468;-3.004;2023-03-15T06:32:33;100010.91;;;8.86;49.63
24390;BME280;12510;56.468;-3.004;2023-03-15T06:35:00;100009.50;;;8.92;49.44
24390;BME280;12510;56.468;-3.004;2023-03-15T06:37:26;100011.72;;;8.96;49.30
24390;BME280;12510;56.468;-3.004;2023-03-15T06:39:53;100018.09;;;8.74;50.09
24390;BME280;12510;56.468;-3.004;2023-03-15T06:42:19;100021.28;;;8.78;50.31
24390;BME280;12510;56.468;-3.004;2023-03-15T06:44:46;100026.13;;;8.92;50.43
24390;BME280;12510;56.468;-3.004;2023-03-15T06:47:13;100032.91;;;8.75;51.06
24390;BME280;12510;56.468;-3.004;2023-03-15T06:49:40;100033.41;;;8.98;50.47
24390;BME280;12510;56.468;-3.004;2023-03-15T06:52:06;100022.19;;;9.16;49.57
24390;BME280;12510;56.468;-3.004;2023-03-15T06:54:33;100027.16;;;9.19;49.70
24390;BME280;12510;56.468;-3.004;2023-03-15T06:56:59;100027.44;;;9.26;49.43
24390;BME280;12510;56.468;-3.004;2023-03-15T06:59:26;100033.19;;;9.29;49.55
24390;BME280;12510;56.468;-3.004;2023-03-15T07:01:52;100033.72;;;9.43;49.12
24390;BME280;12510;56.468;-3.004;2023-03-15T07:04:19;100026.59;;;9.63;49.44
24390;BME280;12510;56.468;-3.004;2023-03-15T07:06:46;100025.72;;;10.00;48.64
24390;BME280;12510;56.468;-3.004;2023-03-15T07:09:13;100021.22;;;11.27;47.12
24390;BME280;12510;56.468;-3.004;2023-03-15T07:11:39;100022.47;;;11.40;45.89
24390;BME280;12510;56.468;-3.004;2023-03-15T07:14:06;100006.81;;;12.33;45.23
24390;BME280;12510;56.468;-3.004;2023-03-15T07:16:32;100005.66;;;12.60;44.13
24390;BME280;12510;56.468;-3.004;2023-03-15T07:18:59;100000.03;;;12.96;43.74
24390;BME280;12510;56.468;-3.004;2023-03-15T07:21:26;99983.03;;;13.95;40.44
24390;BME280;12510;56.468;-3.004;2023-03-15T07:23:53;99994.44;;;14.18;41.00
24390;BME280;12510;56.468;-3.004;2023-03-15T07:26:20;99987.53;;;14.40;40.54
24390;BME280;12510;56.468;-3.004;2023-03-15T07:28:46;100001.31;;;15.12;40.31
24390;BME280;12510;56.468;-3.004;2023-03-15T07:31:13;99999.41;;;14.68;38.99
24390;BME280;12510;56.468;-3.004;2023-03-15T07:33:40;99989.81;;;13.89;39.34
24390;BME280;12510;56.468;-3.004;2023-03-15T07:36:07;99991.06;;;13.70;39.34
24390;BME280;12510;56.468;-3.004;2023-03-15T07:38:34;99986.03;;;14.38;38.67
24390;BME280;12510;56.468;-3.004;2023-03-15T07:41:05;99993.13;;;13.91;39.20
24390;BME280;12510;56.468;-3.004;2023-03-15T07:43:32;99998.16;;;14.79;39.28
24390;BME280;12510;56.468;-3.004;2023-03-15T07:46:09;99987.09;;;13.26;39.44
24390;BME280;12510;56.468;-3.004;2023-03-15T07:48:36;99990.06;;;14.11;39.36
24390;BME280;12510;56.468;-3.004;2023-03-15T07:51:02;99988.19;;;13.88;39.23
24390;BME280;12510;56.468;-3.004;2023-03-15T07:53:29;99983.44;;;13.75;40.77
24390;BME280;12510;56.468;-3.004;2023-03-15T07:55:55;99980.34;;;14.26;39.07
24390;BME280;12510;56.468;-3.004;2023-03-15T07:58:22;99980.03;;;13.58;39.86
24390;BME280;12510;56.468;-3.004;2023-03-15T08:00:48;99992.25;;;11.27;43.33
24390;BME280;12510;56.468;-3.004;2023-03-15T08:03:15;99993.81;;;11.46;43.58
24390;BME280;12510;56.468;-3.004;2023-03-15T08:05:42;99999.22;;;11.10;45.54
24390;BME280;12510;56.468;-3.004;2023-03-15T08:08:08;99988.41;;;10.95;47.15
24390;BME280;12510;56.468;-3.004;2023-03-15T08:10:35;99992.53;;;10.71;45.73
24390;BME280;12510;56.468;-3.004;2023-03-15T08:13:01;100007.78;;;9.20;50.51
24390;BME280;12510;56.468;-3.004;2023-03-15T08:15:28;99997.31;;;11.20;47.58
24390;BME280;12510;56.468;-3.004;2023-03-15T08:17:54;99985.34;;;11.34;47.70
24390;BME280;12510;56.468;-3.004;2023-03-15T08:20:21;100006.66;;;9.60;51.21
24390;BME280;12510;56.468;-3.004;2023-03-15T08:22:48;100005.38;;;10.92;51.78
24390;BME280;12510;56.468;-3.004;2023-03-15T08:25:18;99989.75;;;12.11;46.78
24390;BME280;12510;56.468;-3.004;2023-03-15T08:27:45;99992.88;;;11.55;47.30
24390;BME280;12510;56.468;-3.004;2023-03-15T08:30:13;100013.22;;;10.84;49.91
24390;BME280;12510;56.468;-3.004;2023-03-15T08:32:41;99995.91;;;11.77;47.02
24390;BME280;12510;56.468;-3.004;2023-03-15T08:35:08;100006.25;;;12.04;47.02
24390;BME280;12510;56.468;-3.004;2023-03-15T08:37:35;100008.72;;;12.06;47.46
24390;BME280;12510;56.468;-3.004;2023-03-15T08:40:01;100014.34;;;12.11;47.36
24390;BME280;12510;56.468;-3.004;2023-03-15T08:42:37;100014.06;;;12.80;46.00
24390;BME280;12510;56.468;-3.004;2023-03-15T08:45:05;100012.91;;;12.91;45.77
24390;BME280;12510;56.468;-3.004;2023-03-15T08:47:33;100013.56;;;12.52;45.84
24390;BME280;12510;56.468;-3.004;2023-03-15T08:50:04;100009.78;;;12.96;46.27
24390;BME280;12510;56.468;-3.004;2023-03-15T08:52:31;100016.47;;;13.48;44.43
24390;BME280;12510;56.468;-3.004;2023-03-15T08:54:58;100022.09;;;14.16;44.99
24390;BME280;12510;56.468;-3.004;2023-03-15T08:57:25;100024.63;;;13.78;44.80
24390;BME280;12510;56.468;-3.004;2023-03-15T08:59:54;100015.59;;;15.11;43.57
24390;BME280;12510;56.468;-3.004;2023-03-15T09:02:21;100021.03;;;14.95;42.39
24390;BME280;12510;56.468;-3.004;2023-03-15T09:04:48;100023.56;;;15.26;43.20
24390;BME280;12510;56.468;-3.004;2023-03-15T09:07:15;100016.44;;;15.71;42.28
24390;BME280;12510;56.468;-3.004;2023-03-15T09:09:41;100017.84;;;17.12;40.25
24390;BME280;12510;56.468;-3.004;2023-03-15T09:12:16;100019.72;;;15.44;41.58
24390;BME280;12510;56.468;-3.004;2023-03-15T09:14:43;100017.63;;;16.42;42.59
24390;BME280;12510;56.468;-3.004;2023-03-15T09:17:09;100009.88;;;16.04;40.89
24390;BME280;12510;56.468;-3.004;2023-03-15T09:19:36;100013.84;;;15.93;41.40
24390;BME280;12510;56.468;-3.004;2023-03-15T09:22:02;100015.28;;;16.54;41.11
24390;BME280;12510;56.468;-3.004;2023-03-15T09:24:29;100023.81;;;14.32;44.20
24390;BME280;12510;56.468;-3.004;2023-03-15T09:26:55;100011.78;;;15.44;42.82
24390;BME280;12510;56.468;-3.004;2023-03-15T09:29:22;100023.25;;;16.11;42.62
24390;BME280;12510;56.468;-3.004;2023-03-15T09:31:48;100019.91;;;15.87;41.20
24390;BME280;12510;56.468;-3.004;2023-03-15T09:34:15;100017.25;;;16.67;40.32
24390;BME280;12510;56.468;-3.004;2023-03-15T09:36:42;100009.16;;;15.95;40.54
24390;BME280;12510;56.468;-3.004;2023-03-15T09:39:08;100002.41;;;16.29;40.63
24390;BME280;12510;56.468;-3.004;2023-03-15T09:41:49;100016.34;;;15.35;41.96
24390;BME280;12510;56.468;-3.004;2023-03-15T09:47:27;100019.72;;;15.88;42.12
24390;BME280;12510;56.468;-3.004;2023-03-15T09:50:05;100023.47;;;15.34;42.30
24390;BME280;12510;56.468;-3.004;2023-03-15T09:55:26;100027.06;;;14.19;44.74
24390;BME280;12510;56.468;-3.004;2023-03-15T09:57:56;100025.41;;;15.55;43.39
24390;BME280;12510;56.468;-3.004;2023-03-15T10:00:45;100013.59;;;15.43;42.83
24390;BME280;12510;56.468;-3.004;2023-03-15T10:03:32;100011.41;;;15.32;42.40
24390;BME280;12510;56.468;-3.004;2023-03-15T10:06:23;100006.00;;;15.25;42.81
24390;BME280;12510;56.468;-3.004;2023-03-15T10:08:57;99992.63;;;15.93;41.79
24390;BME280;12510;56.468;-3.004;2023-03-15T10:11:58;100007.94;;;16.13;41.47
24390;BME280;12510;56.468;-3.004;2023-03-15T10:17:55;100011.78;;;14.75;43.63
24390;BME280;12510;56.468;-3.004;2023-03-15T10:20:33;100008.06;;;16.26;42.76
24390;BME280;12510;56.468;-3.004;2023-03-15T10:23:04;100016.78;;;15.53;43.91
24390;BME280;12510;56.468;-3.004;2023-03-15T10:25:36;100012.09;;;16.22;41.58
24390;BME280;12510;56.468;-3.004;2023-03-15T10:28:12;100003.41;;;17.00;39.87
24390;BME280;12510;56.468;-3.004;2023-03-15T10:30:49;100013.84;;;16.80;40.70
24390;BME280;12510;56.468;-3.004;2023-03-15T10:33:29;100026.16;;;14.96;42.85
24390;BME280;12510;56.468;-3.004;2023-03-15T10:35:58;100020.13;;;13.78;43.17
24390;BME280;12510;56.468;-3.004;2023-03-15T10:38:26;100031.06;;;12.45;47.15
24390;BME280;12510;56.468;-3.004;2023-03-15T10:40:59;100021.66;;;13.08;45.51
24390;BME280;12510;56.468;-3.004;2023-03-15T10:43:31;100025.25;;;13.88;45.19
24390;BME280;12510;56.468;-3.004;2023-03-15T10:46:11;100016.16;;;15.51;42.99
24390;BME280;12510;56.468;-3.004;2023-03-15T10:48:51;100022.00;;;15.62;42.23
24390;BME280;12510;56.468;-3.004;2023-03-15T10:51:25;100006.03;;;16.71;40.91
24390;BME280;12510;56.468;-3.004;2023-03-15T10:56:23;99995.63;;;17.68;38.89
24390;BME280;12510;56.468;-3.004;2023-03-15T10:58:55;100003.81;;;17.73;38.49
24390;BME280;12510;56.468;-3.004;2023-03-15T11:01:32;100020.50;;;13.11;43.97
24390;BME280;12510;56.468;-3.004;2023-03-15T11:04:17;100015.00;;;16.05;41.67
24390;BME280;12510;56.468;-3.004;2023-03-15T11:06:50;99994.47;;;17.07;39.98
24390;BME280;12510;56.468;-3.004;2023-03-15T11:09:25;100003.38;;;16.06;41.24
24390;BME280;12510;56.468;-3.004;2023-03-15T11:12:00;100015.78;;;14.48;44.16
24390;BME280;12510;56.468;-3.004;2023-03-15T11:17:00;100030.50;;;13.48;47.25
24390;BME280;12510;56.468;-3.004;2023-03-15T11:19:29;100025.16;;;13.73;46.03
24390;BME280;12510;56.468;-3.004;2023-03-15T11:21:58;100023.38;;;13.49;46.54
24390;BME280;12510;56.468;-3.004;2023-03-15T11:24:30;100017.59;;;14.48;46.58
24390;BME280;12510;56.468;-3.004;2023-03-15T11:27:01;99992.88;;;15.98;42.48
24390;BME280;12510;56.468;-3.004;2023-03-15T11:29:33;99997.88;;;14.04;45.93
24390;BME280;12510;56.468;-3.004;2023-03-15T11:32:02;100003.75;;;13.83;47.23
24390;BME280;12510;56.468;-3.004;2023-03-15T11:34:43;99992.41;;;13.01;48.64
24390;BME280;12510;56.468;-3.004;2023-03-15T11:37:51;99993.19;;;13.83;48.28
24390;BME280;12510;56.468;-3.004;2023-03-15T11:40:39;99991.53;;;14.13;47.32
24390;BME280;12510;56.468;-3.004;2023-03-15T11:43:27;99983.59;;;14.13;46.43
24390;BME280;12510;56.468;-3.004;2023-03-15T11:45:59;99988.06;;;13.81;47.26
24390;BME280;12510;56.468;-3.004;2023-03-15T11:49:14;99987.91;;;14.06;47.22
24390;BME280;12510;56.468;-3.004;2023-03-15T11:51:36;99985.44;;;14.04;46.38
24390;BME280;12510;56.468;-3.004;2023-03-15T11:54:11;99980.31;;;14.49;45.25
24390;BME280;12510;56.468;-3.004;2023-03-15T11:59:27;99991.31;;;14.61;45.40
24390;BME280;12510;56.468;-3.004;2023-03-15T12:02:04;99983.59;;;14.13;46.64
24390;BME280;12510;56.468;-3.004;2023-03-15T12:04:50;99988.63;;;14.00;47.54
24390;BME280;12510;56.468;-3.004;2023-03-15T12:09:57;100003.38;;;13.94;48.24
24390;BME280;12510;56.468;-3.004;2023-03-15T12:12:47;99996.94;;;14.66;46.74
24390;BME280;12510;56.468;-3.004;2023-03-15T12:17:54;100001.94;;;14.84;46.05
24390;BME280;12510;56.468;-3.004;2023-03-15T12:20:36;100004.41;;;14.39;47.22
24390;BME280;12510;56.468;-3.004;2023-03-15T12:25:50;99997.31;;;14.63;46.76
24390;BME280;12510;56.468;-3.004;2023-03-15T12:28:29;99998.66;;;13.81;48.11
24390;BME280;12510;56.468;-3.004;2023-03-15T12:30:59;99988.34;;;14.18;48.15
24390;BME280;12510;56.468;-3.004;2023-03-15T12:33:28;99988.22;;;14.81;47.27
24390;BME280;12510;56.468;-3.004;2023-03-15T12:36:08;99994.25;;;13.65;48.83
24390;BME280;12510;56.468;-3.004;2023-03-15T12:38:38;99986.03;;;14.38;47.30
24390;BME280;12510;56.468;-3.004;2023-03-15T12:41:09;99989.84;;;14.58;47.33
24390;BME280;12510;56.468;-3.004;2023-03-15T12:44:18;99981.88;;;14.67;48.54
24390;BME280;12510;56.468;-3.004;2023-03-15T12:49:26;99977.25;;;13.91;47.98
24390;BME280;12510;56.468;-3.004;2023-03-15T12:51:55;99973.97;;;14.35;48.58
24390;BME280;12510;56.468;-3.004;2023-03-15T12:54:24;99970.03;;;14.93;47.80
24390;BME280;12510;56.468;-3.004;2023-03-15T12:56:56;99957.25;;;15.26;46.57
24390;BME280;12510;56.468;-3.004;2023-03-15T12:59:36;99964.75;;;14.31;48.66
24390;BME280;12510;56.468;-3.004;2023-03-15T13:02:27;99961.47;;;13.74;49.23
24390;BME280;12510;56.468;-3.004;2023-03-15T13:05:17;99967.03;;;13.88;49.81
24390;BME280;12510;56.468;-3.004;2023-03-15T13:16:20;99940.84;;;16.25;46.81
24390;BME280;12510;56.468;-3.004;2023-03-15T13:27:58;99942.53;;;15.23;47.70
24390;BME280;12510;56.468;-3.004;2023-03-15T13:33:28;99924.00;;;16.68;45.53
24390;BME280;12510;56.468;-3.004;2023-03-15T13:36:02;99919.78;;;17.51;43.33
24390;BME280;12510;56.468;-3.004;2023-03-15T13:38:34;99923.00;;;16.69;43.57
24390;BME280;12510;56.468;-3.004;2023-03-15T13:41:15;99922.31;;;17.17;43.11
24390;BME280;12510;56.468;-3.004;2023-03-15T13:43:42;99929.81;;;15.85;44.12
24390;BME280;12510;56.468;-3.004;2023-03-15T13:46:09;99946.84;;;15.24;47.26
24390;BME280;12510;56.468;-3.004;2023-03-15T13:48:40;99936.28;;;15.46;46.43
24390;BME280;12510;56.468;-3.004;2023-03-15T13:51:23;99945.38;;;15.07;46.99
24390;BME280;12510;56.468;-3.004;2023-03-15T13:53:54;99940.41;;;14.74;47.00
24390;BME280;12510;56.468;-3.004;2023-03-15T13:56:29;99936.91;;;16.71;44.74
24390;BME280;12510;56.468;-3.004;2023-03-15T13:58:57;99941.34;;;16.36;46.74
24390;BME280;12510;56.468;-3.004;2023-03-15T14:01:25;99934.22;;;15.12;47.60
24390;BME280;12510;56.468;-3.004;2023-03-15T14:03:56;99937.59;;;15.72;47.75
24390;BME280;12510;56.468;-3.004;2023-03-15T14:06:26;99936.94;;;14.73;48.14